Kendall, MI (49062)

8:54 PM EDT on October 20, 2014 (GMT -0400)
Gobles | Change Station
CLOSE
Current Station
Personal Weather Station
Location: Gobles, MI
Elevation: 860 ft
Nearby Weather Stations

Elev 860 ft 42.40 °N, 85.82 °W | Updated 12 minutes ago

Overcast
Overcast
50.5 °F
Feels Like 50.5 °F
N
0.0
Wind Variable Wind from North

Today
High -- | Low -- °F
--% Chance of Precip.
Yesterday
High -- | Low -- °F
Precip. -- in
8:01 AM 6:53 PM
Waning Crescent, 8% visible
Pressure 29.91 in
Visibility 10.0 miles
Clouds Scattered Clouds 2000 ft
Overcast 6000 ft
Dew Point 47 °F
Humidity 88%
Rainfall 0.02 in
Snow Depth Not available.
UV 0 out of 12
Pollen .90 out of 12
PM2.5 Good
Flu Activity Sporadic
METAR KAZO 202353Z 31009KT 10SM SCT020 OVC060 12/08 A2990 RMK AO2 SLP127 T01170078 10156 20117 53024

More Conditions Fewer Conditions

Pressure 29.91 in
Visibility 10.0 miles
Clouds Scattered Clouds 2000 ft
Overcast 6000 ft
Dew Point 47 °F
Humidity 88%
Rainfall 0.02 in
Snow Depth Not available.
UV 0 out of 12
Pollen .90 out of 12
PM2.5 Good
Flu Activity Sporadic
METAR KAZO 202353Z 31009KT 10SM SCT020 OVC060 12/08 A2990 RMK AO2 SLP127 T01170078 10156 20117 53024

More Conditions Fewer Conditions

10-Day Weather Forecast

Almanac

Astronomy

Oct. 20, 2014 Rise Set
Actual Time 8:01 AM EDT 6:53 PM EDT
Civil Twilight 7:33 AM EDT 7:21 PM EDT
Nautical Twilight 7:00 AM EDT 7:54 PM EDT
Astronomical Twilight 6:28 AM EDT 8:27 PM EDT
Moon 4:46 AM EDT (10/20) 5:18 PM EDT (10/20)
Length of Visible Light 11h 48m
Length of Day
10h 51m
Tomorrow will be 2m 42s shorter.
Waning Crescent, 8% of the Moon is Illuminated
Today
Waning Crescent
Oct 23
New
Oct 30
First Quarter
Nov 6
Full
Nov 14
Last Quarter

Today's Extremes

State Highs State Lows

Community

WunderPhotos

Upload Photos

1,763,565 photos uploaded!

Nearby

Air Quality

  Air Quality AQ Index Pollutant
Yesterday Good
PM2.5
Current Good
PM2.5
Monday Good
PM2.5
Tuesday Good
PM2.5
Wednesday Good
PM2.5
Thursday Good
PM2.5
Friday Good
PM2.5
Saturday Good
PM2.5

Snow Depth

Station Depth Elevation
No new snow has been reported.

Earthquake Activity

City Distance Mag. Time & Date
No recent earthquake activity has been reported nearby.
Minimum magnitude displayed is 2.5.

Coastal Water Temperatures

Place Temperature
Holland, MI 54.0 °F

Nearby Weather Stations